Miya Maru No.1 — JD3144 — position and weather

sailwx.info

Track history (hours):
 
Tides and Currents Weather Stations Pressure Air Temp Water Temp Dewpoint Dewpoint Depression Visibility Wind Speed Wind Dir Waves Ship Positions

Miya Maru No.1

Last reported at 2017-Oct-16 08:35 UTC. Time now 2017-Oct-18 11:00 UTC.
Position N 34°54' E 140°05'.

Length 104 m; draft 6.8 m.

Type: Tanker. MMSI: 431002261.

Date/timePositionNaut miles runAvg speedWind from/ knotsBaromVisibWave heightAir tempDewpointWater temp
2017-Oct-16 08:35N 34°54' E 140°05'2 9.5
2017-Oct-16 08:20N 34°53' E 140°02'6 9.7
2017-Oct-16 07:44N 34°50' E 139°56'310.7
2017-Oct-16 07:28N 34°50' E 139°53'510.1
2017-Oct-16 06:57N 34°52' E 139°47'715.5
2017-Oct-16 06:31N 34°58' E 139°43'714.2
2017-Oct-16 06:00N 35°05' E 139°44'713.7
2017-Oct-16 05:30N 35°11' E 139°46'612.3
2017-Oct-16 05:00N 35°17' E 139°45'612.5
2017-Oct-16 04:30N 35°23' E 139°41'2 4.0
2017-Oct-16 03:59N 35°25' E 139°39'0 0.0
2017-Oct-16 03:29N 35°25' E 139°39'0 0.0
2017-Oct-16 02:56N 35°25' E 139°39'0 0.0
2017-Oct-16 02:29N 35°25' E 139°39'0 0.0
2017-Oct-16 01:59N 35°25' E 139°39'0 0.0
2017-Oct-16 01:29N 35°25' E 139°39'0 0.0
2017-Oct-16 00:59N 35°25' E 139°39'0 0.0
2017-Oct-16 00:29N 35°25' E 139°39'0 0.0
2017-Oct-15 23:59N 35°25' E 139°39'0 0.0
2017-Oct-15 23:26N 35°25' E 139°39'1 2.4
2017-Oct-15 23:00N 35°24' E 139°40'1 2.7
2017-Oct-15 22:31N 35°22' E 139°41'0 0.0
2017-Oct-15 21:58N 35°22' E 139°41'0 0.0
2017-Oct-15 21:30N 35°22' E 139°41'0 0.0
2017-Oct-15 20:58N 35°22' E 139°41'0 0.0
2017-Oct-15 20:31N 35°22' E 139°41'0 0.0
2017-Oct-15 19:58N 35°22' E 139°41'0 0.0
2017-Oct-15 19:30N 35°22' E 139°41'0 0.0
2017-Oct-15 18:58N 35°22' E 139°41'0 0.1
2017-Oct-15 18:31N 35°22' E 139°41'0 0.0
2017-Oct-15 17:58N 35°22' E 139°41'0 0.1
2017-Oct-15 17:27N 35°22' E 139°41'0 0.0
2017-Oct-15 16:58N 35°22' E 139°41'0 0.0
2017-Oct-15 16:31N 35°22' E 139°41'0 0.0
2017-Oct-15 15:58N 35°22' E 139°41'0 0.0
2017-Oct-15 15:28N 35°22' E 139°41'0 0.0
2017-Oct-15 14:58N 35°22' E 139°41'0 0.0
2017-Oct-15 13:55N 35°22' E 139°41'0 0.1
2017-Oct-15 13:28N 35°22' E 139°41'0 0.0
2017-Oct-15 13:01N 35°22' E 139°41'0 0.1
2017-Oct-15 12:31N 35°22' E 139°41'0 0.0
2017-Oct-15 12:01N 35°22' E 139°41'0 0.0
2017-Oct-15 11:27N 35°22' E 139°41'0 0.0
2017-Oct-15 11:00N 35°22' E 139°41'0 0.0
2017-Oct-15 10:30N 35°22' E 139°41'2 3.4
2017-Oct-15 10:00N 35°24' E 139°40'1 1.2
2017-Oct-15 09:29N 35°25' E 139°39'0 0.0
2017-Oct-15 08:59N 35°25' E 139°39'0 0.0
2017-Oct-15 08:29N 35°25' E 139°39'0 0.0
2017-Oct-15 07:59N 35°25' E 139°39'0 0.0
2017-Oct-15 07:29N 35°25' E 139°39'0 0.0
2017-Oct-15 06:59N 35°25' E 139°39'0 0.0
2017-Oct-15 06:29N 35°25' E 139°39'0 0.0
2017-Oct-15 05:59N 35°25' E 139°39'0 0.0
2017-Oct-15 05:29N 35°25' E 139°39'0 0.0
2017-Oct-15 04:59N 35°25' E 139°39'0 0.0
2017-Oct-15 04:29N 35°25' E 139°39'0 0.0
2017-Oct-15 03:59N 35°25' E 139°39'0 0.0
2017-Oct-15 03:29N 35°25' E 139°39'0 0.5
2017-Oct-15 03:00N 35°24' E 139°39'2 4.1
2017-Oct-15 02:30N 35°23' E 139°41'1 1.9
2017-Oct-15 02:01N 35°22' E 139°42'4 8.9
2017-Oct-15 01:30N 35°18' E 139°44'611.8
2017-Oct-15 01:00N 35°13' E 139°47'612.3
2017-Oct-15 00:30N 35°07' E 139°46'612.6
2017-Oct-15 00:00N 35°01' E 139°43'511.0
2017-Oct-14 23:30N 34°56' E 139°43'612.2
2017-Oct-14 23:00N 34°51' E 139°48'  
2017-Oct-07 15:08N 34°57' E 140°09'512.5
2017-Oct-07 14:43N 34°54' E 140°04'312.4
2017-Oct-07 14:30N 34°53' E 140°02'711.6
2017-Oct-07 13:53N 34°50' E 139°53'510.9
2017-Oct-07 13:23N 34°52' E 139°47'514.3
2017-Oct-07 13:00N 34°57' E 139°43'713.4
2017-Oct-07 12:30N 35°04' E 139°44'714.0
2017-Oct-07 12:00N 35°10' E 139°46'612.9
2017-Oct-07 11:31N 35°17' E 139°45'613.0
2017-Oct-07 11:01N 35°22' E 139°41'3 5.3
2017-Oct-07 10:31N 35°25' E 139°39'0 0.0
2017-Oct-07 10:01N 35°25' E 139°39'0 0.0
2017-Oct-07 09:31N 35°25' E 139°39'0 0.0
2017-Oct-07 09:00N 35°25' E 139°39'0 0.0
2017-Oct-07 08:30N 35°25' E 139°39'0 0.0
2017-Oct-07 08:00N 35°25' E 139°39'0 0.0
2017-Oct-07 07:30N 35°25' E 139°39'0 0.0
2017-Oct-07 07:00N 35°25' E 139°39'0 0.0
2017-Oct-07 06:30N 35°25' E 139°39'0 0.0
2017-Oct-07 05:57N 35°25' E 139°39'0 0.0
2017-Oct-07 05:30N 35°25' E 139°39'0 0.0
2017-Oct-07 05:00N 35°25' E 139°39'0 0.0
2017-Oct-07 04:30N 35°25' E 139°39'0 0.0
2017-Oct-07 04:00N 35°25' E 139°39'0 0.0
2017-Oct-07 03:30N 35°25' E 139°39'0 0.0
2017-Oct-07 03:00N 35°25' E 139°39'0 0.0
2017-Oct-07 02:30N 35°25' E 139°39'0 0.0
2017-Oct-07 01:57N 35°25' E 139°39'0 0.0
2017-Oct-07 01:30N 35°25' E 139°39'0 0.0
2017-Oct-07 01:00N 35°25' E 139°39'0 0.0
2017-Oct-07 00:30N 35°25' E 139°39'0 0.0
2017-Oct-07 00:00N 35°25' E 139°39'0 0.7
2017-Oct-06 23:30N 35°24' E 139°39'2 3.3
2017-Oct-06 22:58N 35°23' E 139°40'0 0.0
2017-Oct-06 22:28N 35°23' E 139°40'1 1.4
2017-Oct-06 22:00N 35°22' E 139°40'0 0.3
2017-Oct-06 21:30N 35°22' E 139°40'0 0.0
2017-Oct-06 21:00N 35°22' E 139°40'1 2.0
2017-Oct-06 20:30N 35°22' E 139°42'612.5
2017-Oct-06 20:00N 35°17' E 139°46'612.3
2017-Oct-06 19:30N 35°10' E 139°46'612.9
2017-Oct-06 19:00N 35°04' E 139°44'713.9
2017-Oct-06 18:30N 34°57' E 139°42'  
Track history (hours):
 
Tides and Currents Weather Stations Pressure Air Temp Water Temp Dewpoint Dewpoint Depression Visibility Wind Speed Wind Dir Waves Ship Positions

Miya Maru No.1

Last reported at 2017-Oct-16 08:35 UTC. Time now 2017-Oct-18 11:00 UTC.
Position N 34°54' E 140°05'.

Length 104 m; draft 6.8 m.

Type: Tanker. MMSI: 431002261.

Date/timePositionNaut miles runAvg speedWind from/ knotsBaromVisibWave heightAir tempDewpointWater temp
2017-Oct-16 08:35N 34°54' E 140°05'2 9.5
2017-Oct-16 08:20N 34°53' E 140°02'6 9.7
2017-Oct-16 07:44N 34°50' E 139°56'310.7
2017-Oct-16 07:28N 34°50' E 139°53'510.1
2017-Oct-16 06:57N 34°52' E 139°47'715.5
2017-Oct-16 06:31N 34°58' E 139°43'714.2
2017-Oct-16 06:00N 35°05' E 139°44'713.7
2017-Oct-16 05:30N 35°11' E 139°46'612.3
2017-Oct-16 05:00N 35°17' E 139°45'612.5
2017-Oct-16 04:30N 35°23' E 139°41'2 4.0
2017-Oct-16 03:59N 35°25' E 139°39'0 0.0
2017-Oct-16 03:29N 35°25' E 139°39'0 0.0
2017-Oct-16 02:56N 35°25' E 139°39'0 0.0
2017-Oct-16 02:29N 35°25' E 139°39'0 0.0
2017-Oct-16 01:59N 35°25' E 139°39'0 0.0
2017-Oct-16 01:29N 35°25' E 139°39'0 0.0
2017-Oct-16 00:59N 35°25' E 139°39'0 0.0
2017-Oct-16 00:29N 35°25' E 139°39'0 0.0
2017-Oct-15 23:59N 35°25' E 139°39'0 0.0
2017-Oct-15 23:26N 35°25' E 139°39'1 2.4
2017-Oct-15 23:00N 35°24' E 139°40'1 2.7
2017-Oct-15 22:31N 35°22' E 139°41'0 0.0
2017-Oct-15 21:58N 35°22' E 139°41'0 0.0
2017-Oct-15 21:30N 35°22' E 139°41'0 0.0
2017-Oct-15 20:58N 35°22' E 139°41'0 0.0
2017-Oct-15 20:31N 35°22' E 139°41'0 0.0
2017-Oct-15 19:58N 35°22' E 139°41'0 0.0
2017-Oct-15 19:30N 35°22' E 139°41'0 0.0
2017-Oct-15 18:58N 35°22' E 139°41'0 0.1
2017-Oct-15 18:31N 35°22' E 139°41'0 0.0
2017-Oct-15 17:58N 35°22' E 139°41'0 0.1
2017-Oct-15 17:27N 35°22' E 139°41'0 0.0
2017-Oct-15 16:58N 35°22' E 139°41'0 0.0
2017-Oct-15 16:31N 35°22' E 139°41'0 0.0
2017-Oct-15 15:58N 35°22' E 139°41'0 0.0
2017-Oct-15 15:28N 35°22' E 139°41'0 0.0
2017-Oct-15 14:58N 35°22' E 139°41'0 0.0
2017-Oct-15 13:55N 35°22' E 139°41'0 0.1
2017-Oct-15 13:28N 35°22' E 139°41'0 0.0
2017-Oct-15 13:01N 35°22' E 139°41'0 0.1
2017-Oct-15 12:31N 35°22' E 139°41'0 0.0
2017-Oct-15 12:01N 35°22' E 139°41'0 0.0
2017-Oct-15 11:27N 35°22' E 139°41'0 0.0
2017-Oct-15 11:00N 35°22' E 139°41'0 0.0
2017-Oct-15 10:30N 35°22' E 139°41'2 3.4
2017-Oct-15 10:00N 35°24' E 139°40'1 1.2
2017-Oct-15 09:29N 35°25' E 139°39'0 0.0
2017-Oct-15 08:59N 35°25' E 139°39'0 0.0
2017-Oct-15 08:29N 35°25' E 139°39'0 0.0
2017-Oct-15 07:59N 35°25' E 139°39'0 0.0
2017-Oct-15 07:29N 35°25' E 139°39'0 0.0
2017-Oct-15 06:59N 35°25' E 139°39'0 0.0
2017-Oct-15 06:29N 35°25' E 139°39'0 0.0
2017-Oct-15 05:59N 35°25' E 139°39'0 0.0
2017-Oct-15 05:29N 35°25' E 139°39'0 0.0
2017-Oct-15 04:59N 35°25' E 139°39'0 0.0
2017-Oct-15 04:29N 35°25' E 139°39'0 0.0
2017-Oct-15 03:59N 35°25' E 139°39'0 0.0
2017-Oct-15 03:29N 35°25' E 139°39'0 0.5
2017-Oct-15 03:00N 35°24' E 139°39'2 4.1
2017-Oct-15 02:30N 35°23' E 139°41'1 1.9
2017-Oct-15 02:01N 35°22' E 139°42'4 8.9
2017-Oct-15 01:30N 35°18' E 139°44'611.8
2017-Oct-15 01:00N 35°13' E 139°47'612.3
2017-Oct-15 00:30N 35°07' E 139°46'612.6
2017-Oct-15 00:00N 35°01' E 139°43'511.0
2017-Oct-14 23:30N 34°56' E 139°43'612.2
2017-Oct-14 23:00N 34°51' E 139°48'  
2017-Oct-07 15:08N 34°57' E 140°09'512.5
2017-Oct-07 14:43N 34°54' E 140°04'312.4
2017-Oct-07 14:30N 34°53' E 140°02'711.6
2017-Oct-07 13:53N 34°50' E 139°53'510.9
2017-Oct-07 13:23N 34°52' E 139°47'514.3
2017-Oct-07 13:00N 34°57' E 139°43'713.4
2017-Oct-07 12:30N 35°04' E 139°44'714.0
2017-Oct-07 12:00N 35°10' E 139°46'612.9
2017-Oct-07 11:31N 35°17' E 139°45'613.0
2017-Oct-07 11:01N 35°22' E 139°41'3 5.3
2017-Oct-07 10:31N 35°25' E 139°39'0 0.0
2017-Oct-07 10:01N 35°25' E 139°39'0 0.0
2017-Oct-07 09:31N 35°25' E 139°39'0 0.0
2017-Oct-07 09:00N 35°25' E 139°39'0 0.0
2017-Oct-07 08:30N 35°25' E 139°39'0 0.0
2017-Oct-07 08:00N 35°25' E 139°39'0 0.0
2017-Oct-07 07:30N 35°25' E 139°39'0 0.0
2017-Oct-07 07:00N 35°25' E 139°39'0 0.0
2017-Oct-07 06:30N 35°25' E 139°39'0 0.0
2017-Oct-07 05:57N 35°25' E 139°39'0 0.0
2017-Oct-07 05:30N 35°25' E 139°39'0 0.0
2017-Oct-07 05:00N 35°25' E 139°39'0 0.0
2017-Oct-07 04:30N 35°25' E 139°39'0 0.0
2017-Oct-07 04:00N 35°25' E 139°39'0 0.0
2017-Oct-07 03:30N 35°25' E 139°39'0 0.0
2017-Oct-07 03:00N 35°25' E 139°39'0 0.0
2017-Oct-07 02:30N 35°25' E 139°39'0 0.0
2017-Oct-07 01:57N 35°25' E 139°39'0 0.0
2017-Oct-07 01:30N 35°25' E 139°39'0 0.0
2017-Oct-07 01:00N 35°25' E 139°39'0 0.0
2017-Oct-07 00:30N 35°25' E 139°39'0 0.0
2017-Oct-07 00:00N 35°25' E 139°39'0 0.7
2017-Oct-06 23:30N 35°24' E 139°39'2 3.3
2017-Oct-06 22:58N 35°23' E 139°40'0 0.0
2017-Oct-06 22:28N 35°23' E 139°40'1 1.4
2017-Oct-06 22:00N 35°22' E 139°40'0 0.3
2017-Oct-06 21:30N 35°22' E 139°40'0 0.0
2017-Oct-06 21:00N 35°22' E 139°40'1 2.0
2017-Oct-06 20:30N 35°22' E 139°42'612.5
2017-Oct-06 20:00N 35°17' E 139°46'612.3
2017-Oct-06 19:30N 35°10' E 139°46'612.9
2017-Oct-06 19:00N 35°04' E 139°44'713.9
2017-Oct-06 18:30N 34°57' E 139°42'  

Dump ship's entire track history